createdAt,value
2018-09-19T00:00:43.595Z,9.17
2018-09-19T00:03:11.970Z,7.57
2018-09-19T00:05:40.255Z,7.60
2018-09-19T00:08:09.032Z,5.23
2018-09-19T00:10:37.307Z,6.73
2018-09-19T00:13:05.605Z,5.50
2018-09-19T00:15:34.066Z,5.50
2018-09-19T00:18:02.352Z,7.40
2018-09-19T00:20:30.777Z,8.30
2018-09-19T00:22:59.134Z,8.93
2018-09-19T00:25:27.574Z,8.77
2018-09-19T00:27:56.022Z,6.90
2018-09-19T00:30:24.363Z,6.63
2018-09-19T00:32:52.674Z,6.70
2018-09-19T00:35:21.301Z,9.03
2018-09-19T00:37:49.716Z,9.23
2018-09-19T00:40:18.040Z,8.30
2018-09-19T00:42:46.350Z,7.47
2018-09-19T00:45:14.880Z,12.23
2018-09-19T00:47:43.217Z,6.27
2018-09-19T00:50:11.706Z,7.63
2018-09-19T00:52:40.070Z,6.97
2018-09-19T00:55:09.002Z,7.90
2018-09-19T00:57:37.562Z,9.17
2018-09-19T01:00:05.928Z,7.83
2018-09-19T01:02:34.224Z,7.73
2018-09-19T01:05:02.537Z,6.77
2018-09-19T01:07:30.828Z,8.40
2018-09-19T01:09:59.329Z,10.20
2018-09-19T01:12:27.736Z,12.17
2018-09-19T01:14:56.217Z,7.00
2018-09-19T01:17:24.687Z,8.93
2018-09-19T01:19:53.002Z,5.67
2018-09-19T01:22:21.350Z,10.70
2018-09-19T01:24:49.828Z,9.13
2018-09-19T01:27:18.224Z,7.30
2018-09-19T01:29:46.567Z,5.93
2018-09-19T01:32:15.019Z,7.17
2018-09-19T01:34:43.365Z,8.30
2018-09-19T01:37:11.742Z,7.40
2018-09-19T01:39:40.094Z,8.70
2018-09-19T01:42:08.511Z,10.87
2018-09-19T01:44:36.930Z,7.23
2018-09-19T01:47:05.295Z,10.77
2018-09-19T01:49:33.715Z,7.30
2018-09-19T01:52:02.078Z,12.47
2018-09-19T01:54:30.418Z,8.50
2018-09-19T01:56:58.742Z,11.10
2018-09-19T01:59:27.076Z,8.27
2018-09-19T02:01:55.383Z,7.17
2018-09-19T02:04:23.717Z,7.83
2018-09-19T02:06:52.614Z,7.70
2018-09-19T02:09:21.007Z,10.07
2018-09-19T02:11:49.531Z,6.30
2018-09-19T02:14:18.450Z,8.10
2018-09-19T02:16:46.774Z,7.57
2018-09-19T02:19:15.168Z,11.43
2018-09-19T02:21:43.409Z,6.63
2018-09-19T02:24:11.725Z,5.80
2018-09-19T02:26:40.075Z,9.60
2018-09-19T02:29:08.435Z,6.20
2018-09-19T02:31:36.772Z,8.07
2018-09-19T02:34:05.164Z,13.00
2018-09-19T02:36:33.554Z,7.40
2018-09-19T02:39:01.875Z,9.20
2018-09-19T02:41:30.173Z,7.07
2018-09-19T02:43:58.499Z,8.93
2018-09-19T02:46:26.859Z,7.50
2018-09-19T02:48:55.204Z,9.90
2018-09-19T02:51:23.691Z,8.33
2018-09-19T02:53:51.984Z,7.63
2018-09-19T02:56:20.438Z,6.70
2018-09-19T02:58:48.759Z,12.83
2018-09-19T03:01:17.167Z,13.93
2018-09-19T03:03:45.424Z,8.40
2018-09-19T03:06:13.775Z,6.40
2018-09-19T03:08:42.187Z,9.23
2018-09-19T03:11:10.521Z,11.97
2018-09-19T03:13:38.860Z,9.90
2018-09-19T03:16:07.241Z,8.23
2018-09-19T03:18:35.637Z,10.03
2018-09-19T03:21:03.983Z,9.07
2018-09-19T03:23:32.952Z,8.80
2018-09-19T03:26:01.330Z,12.00
2018-09-19T03:28:29.605Z,9.07
2018-09-19T03:30:57.884Z,7.47
2018-09-19T03:33:26.180Z,9.40
2018-09-19T03:35:54.487Z,8.47
2018-09-19T03:38:22.805Z,12.17
2018-09-19T03:40:51.115Z,11.20
2018-09-19T03:43:19.483Z,13.43
2018-09-19T03:45:47.945Z,8.67
2018-09-19T03:48:16.304Z,9.90
2018-09-19T03:50:44.606Z,9.20
2018-09-19T03:53:13.101Z,8.17
2018-09-19T03:55:41.393Z,9.90
2018-09-19T03:58:09.788Z,11.93
2018-09-19T04:00:39.118Z,12.03
2018-09-19T04:03:07.397Z,7.00
2018-09-19T04:05:35.829Z,8.03
2018-09-19T04:08:04.171Z,14.00
2018-09-19T04:10:32.493Z,6.70
2018-09-19T04:13:00.851Z,11.33
2018-09-19T04:15:29.334Z,7.53
2018-09-19T04:17:57.703Z,12.50
2018-09-19T04:20:26.123Z,7.60
2018-09-19T04:22:54.464Z,12.00
2018-09-19T04:25:22.741Z,12.20
2018-09-19T04:27:51.103Z,12.80
2018-09-19T04:30:19.453Z,8.73
2018-09-19T04:32:47.811Z,15.13
2018-09-19T04:35:16.173Z,11.73
2018-09-19T04:37:44.505Z,17.00
2018-09-19T04:40:12.950Z,13.77
2018-09-19T04:42:41.246Z,12.23
2018-09-19T04:45:09.726Z,7.10
2018-09-19T04:47:37.994Z,12.73
2018-09-19T04:50:06.465Z,10.70
2018-09-19T04:52:35.441Z,13.57
2018-09-19T04:55:04.867Z,14.60
2018-09-19T04:57:33.230Z,12.60
2018-09-19T05:00:02.145Z,13.17
2018-09-19T05:02:30.408Z,7.80
2018-09-19T05:04:58.683Z,10.50
2018-09-19T05:07:27.094Z,11.07
2018-09-19T05:09:55.705Z,10.13
2018-09-19T05:12:24.058Z,12.93
2018-09-19T05:14:52.437Z,8.87
2018-09-19T05:17:20.726Z,11.53
2018-09-19T05:19:49.168Z,16.83
2018-09-19T05:22:18.174Z,9.97
2018-09-19T05:24:46.609Z,16.87
2018-09-19T05:27:16.099Z,27.03
2018-09-19T05:29:44.717Z,9.03
2018-09-19T05:32:13.065Z,11.00
2018-09-19T05:34:41.388Z,13.60
2018-09-19T05:37:09.859Z,8.87
2018-09-19T05:39:38.227Z,7.60
2018-09-19T05:42:06.908Z,9.30
2018-09-19T05:44:35.347Z,8.80
2018-09-19T05:47:03.720Z,12.30
2018-09-19T05:49:32.071Z,8.73
2018-09-19T05:52:00.392Z,6.97
2018-09-19T05:54:28.691Z,13.90
2018-09-19T05:56:57.046Z,7.00
2018-09-19T05:59:25.341Z,16.37
2018-09-19T06:01:53.656Z,16.00
2018-09-19T06:04:21.983Z,9.73
2018-09-19T06:06:50.418Z,7.30
2018-09-19T06:09:18.771Z,11.10
2018-09-19T06:11:47.048Z,15.77
2018-09-19T06:14:15.376Z,10.73
2018-09-19T06:16:43.704Z,9.33
2018-09-19T06:19:11.984Z,7.60
2018-09-19T06:21:40.793Z,14.53
2018-09-19T06:24:09.200Z,7.07
2018-09-19T06:26:37.601Z,10.90
2018-09-19T06:29:06.252Z,9.93
2018-09-19T06:31:34.619Z,18.77
2018-09-19T06:34:02.931Z,15.27
2018-09-19T06:36:31.303Z,26.80
2018-09-19T06:38:59.731Z,9.50
2018-09-19T06:41:28.010Z,7.53
2018-09-19T06:43:56.313Z,12.53
2018-09-19T06:46:24.830Z,22.50
2018-09-19T06:48:53.132Z,9.10
2018-09-19T06:51:22.622Z,30.77
2018-09-19T06:53:50.999Z,20.70
2018-09-19T06:56:19.418Z,9.50
2018-09-19T06:58:47.765Z,12.10
2018-09-19T07:01:16.113Z,12.33
2018-09-19T07:03:44.434Z,15.60
2018-09-19T07:06:12.687Z,14.53
2018-09-19T07:08:40.970Z,12.13
2018-09-19T07:11:09.236Z,6.67
2018-09-19T07:13:37.682Z,6.60
2018-09-19T07:16:06.098Z,18.40
2018-09-19T07:18:34.524Z,7.00
2018-09-19T07:21:02.974Z,12.47
2018-09-19T07:23:31.315Z,15.20
2018-09-19T07:25:59.625Z,11.63
2018-09-19T07:28:27.987Z,8.40
2018-09-19T07:30:56.339Z,10.03
2018-09-19T07:33:24.620Z,5.40
2018-09-19T07:35:52.895Z,7.77
2018-09-19T07:38:21.218Z,7.00
2018-09-19T07:40:49.586Z,5.17
2018-09-19T07:43:18.010Z,8.93
2018-09-19T07:45:46.381Z,9.60
2018-09-19T07:48:14.696Z,10.60
2018-09-19T07:50:42.988Z,5.83
2018-09-19T07:53:11.288Z,18.60
2018-09-19T07:55:39.618Z,5.37
2018-09-19T07:58:07.917Z,8.57
2018-09-19T08:00:36.298Z,6.40
2018-09-19T08:03:04.552Z,6.93
2018-09-19T08:05:32.876Z,7.10
2018-09-19T08:08:01.539Z,7.70
2018-09-19T08:10:29.840Z,8.03
2018-09-19T08:12:58.134Z,6.30
2018-09-19T08:15:26.485Z,5.60
2018-09-19T08:17:54.770Z,5.40
2018-09-19T08:20:23.044Z,6.33
2018-09-19T08:22:51.423Z,6.03
2018-09-19T08:25:19.808Z,5.10
2018-09-19T08:27:48.107Z,6.13
2018-09-19T08:30:16.383Z,4.97
2018-09-19T08:32:44.680Z,10.00
2018-09-19T08:35:13.181Z,6.33
2018-09-19T08:37:41.602Z,11.17
2018-09-19T08:40:13.028Z,7.80
2018-09-19T08:42:41.287Z,6.60
2018-09-19T08:45:09.714Z,6.23
2018-09-19T08:47:37.970Z,12.50
2018-09-19T08:50:06.354Z,6.90
2018-09-19T08:52:34.755Z,4.67
2018-09-19T08:55:03.431Z,12.83
2018-09-19T08:57:31.750Z,5.00
2018-09-19T09:00:00.052Z,5.30
2018-09-19T09:02:28.371Z,4.67
2018-09-19T09:04:56.675Z,5.77
2018-09-19T09:07:24.960Z,5.20
2018-09-19T09:09:56.077Z,5.10
2018-09-19T09:12:24.532Z,4.70
2018-09-19T09:14:52.813Z,7.17
2018-09-19T09:17:21.160Z,9.67
2018-09-19T09:19:49.510Z,4.70
2018-09-19T09:22:17.888Z,4.47
2018-09-19T09:24:46.219Z,4.90
2018-09-19T09:27:14.590Z,4.03
2018-09-19T09:29:43.050Z,4.03
2018-09-19T09:32:11.415Z,5.47
2018-09-19T09:34:39.763Z,4.00
2018-09-19T09:37:08.122Z,4.00
2018-09-19T09:39:36.577Z,7.40
2018-09-19T09:42:04.882Z,10.70
2018-09-19T09:44:33.237Z,8.33
2018-09-19T09:47:01.524Z,7.50
2018-09-19T09:49:29.796Z,6.53
2018-09-19T09:51:58.135Z,3.93
2018-09-19T09:54:26.403Z,4.80
2018-09-19T09:56:54.722Z,4.03
2018-09-19T09:59:23.092Z,3.40
2018-09-19T10:01:51.383Z,4.00
2018-09-19T10:04:19.696Z,6.17
2018-09-19T10:06:48.012Z,3.60
2018-09-19T10:09:16.301Z,4.93
2018-09-19T10:11:44.590Z,4.40
2018-09-19T10:14:12.893Z,5.80
2018-09-19T10:16:41.363Z,3.73
2018-09-19T10:19:09.672Z,11.87
2018-09-19T10:21:37.997Z,3.70
2018-09-19T10:24:06.202Z,9.90
2018-09-19T10:26:34.473Z,5.07
2018-09-19T10:29:02.806Z,5.27
2018-09-19T10:31:31.119Z,4.53
2018-09-19T10:33:59.402Z,4.73
2018-09-19T10:36:27.733Z,5.90
2018-09-19T10:38:56.629Z,4.00
2018-09-19T10:41:24.928Z,3.80
2018-09-19T10:43:53.272Z,4.37
2018-09-19T10:46:21.497Z,6.70
2018-09-19T10:48:49.895Z,3.47
2018-09-19T10:51:18.210Z,5.40
2018-09-19T10:53:46.482Z,4.13
2018-09-19T10:56:14.768Z,4.07
2018-09-19T10:58:43.012Z,4.83
2018-09-19T11:01:11.526Z,3.90
2018-09-19T11:03:39.940Z,4.83
2018-09-19T11:06:08.331Z,6.23
2018-09-19T11:08:36.664Z,4.30
2018-09-19T11:11:05.073Z,4.97
2018-09-19T11:13:33.451Z,6.67
2018-09-19T11:16:01.715Z,6.23
2018-09-19T11:18:30.021Z,5.97
2018-09-19T11:20:58.308Z,4.83
2018-09-19T11:23:26.735Z,4.07
2018-09-19T11:25:55.023Z,5.40
2018-09-19T11:28:23.496Z,4.03
2018-09-19T11:30:51.831Z,5.00
2018-09-19T11:33:20.317Z,5.07
2018-09-19T11:35:48.678Z,5.40
2018-09-19T11:38:17.196Z,4.50
2018-09-19T11:40:45.606Z,4.80
2018-09-19T11:43:14.028Z,4.47
2018-09-19T11:45:42.381Z,4.13
2018-09-19T11:48:10.863Z,6.80
2018-09-19T11:50:39.214Z,6.40
2018-09-19T11:53:11.688Z,4.47
2018-09-19T11:55:40.192Z,5.87
2018-09-19T11:58:08.518Z,4.73
2018-09-19T12:00:36.906Z,4.10
2018-09-19T12:03:08.308Z,4.40
2018-09-19T12:05:36.531Z,3.43
2018-09-19T12:08:04.988Z,3.10
2018-09-19T12:10:33.643Z,3.43
2018-09-19T12:13:02.296Z,3.60
2018-09-19T12:15:30.562Z,3.37
2018-09-19T12:17:59.013Z,3.40
2018-09-19T12:20:27.321Z,4.83
2018-09-19T12:22:55.605Z,6.90
2018-09-19T12:25:23.943Z,3.40
2018-09-19T12:27:52.349Z,5.33
2018-09-19T12:30:20.666Z,5.10
2018-09-19T12:32:49.065Z,3.70
2018-09-19T12:35:17.353Z,3.20
2018-09-19T12:37:45.822Z,4.93
2018-09-19T12:40:14.196Z,4.07
2018-09-19T12:42:42.537Z,3.33
2018-09-19T12:45:10.844Z,9.63
2018-09-19T12:47:39.160Z,3.63
2018-09-19T12:50:07.409Z,7.50
2018-09-19T12:52:35.995Z,3.23
2018-09-19T12:55:04.291Z,7.40
2018-09-19T12:57:32.619Z,3.50
2018-09-19T13:00:01.378Z,5.10
2018-09-19T13:02:29.724Z,5.83
2018-09-19T13:04:57.978Z,3.60
2018-09-19T13:07:26.243Z,5.00
2018-09-19T13:09:54.550Z,3.40
2018-09-19T13:12:22.943Z,3.03
2018-09-19T13:14:51.283Z,4.07
2018-09-19T13:17:19.564Z,3.57
2018-09-19T13:19:47.839Z,3.80
2018-09-19T13:22:16.048Z,3.90
2018-09-19T13:24:44.271Z,3.57
2018-09-19T13:27:12.702Z,3.40
2018-09-19T13:29:41.033Z,3.60
2018-09-19T13:32:09.300Z,4.17
2018-09-19T13:34:37.532Z,6.20
2018-09-19T13:37:05.873Z,4.83
2018-09-19T13:39:34.164Z,4.87
2018-09-19T13:42:02.421Z,3.90
2018-09-19T13:44:30.698Z,3.63
2018-09-19T13:46:58.976Z,3.17
2018-09-19T13:49:31.692Z,3.50
2018-09-19T13:52:00.054Z,3.93
2018-09-19T13:54:28.331Z,2.90
2018-09-19T13:56:56.628Z,3.90
2018-09-19T13:59:24.941Z,3.90
2018-09-19T14:01:53.274Z,4.27
2018-09-19T14:04:21.709Z,5.10
2018-09-19T14:06:49.913Z,5.07
2018-09-19T14:09:18.184Z,4.60
2018-09-19T14:11:46.510Z,5.60
2018-09-19T14:14:14.782Z,4.10
2018-09-19T14:16:43.163Z,4.87
2018-09-19T14:19:12.534Z,5.37
2018-09-19T14:21:40.769Z,4.40
2018-09-19T14:24:09.013Z,4.00
2018-09-19T14:26:37.346Z,3.87
2018-09-19T14:29:06.547Z,5.40
2018-09-19T14:31:34.811Z,3.53
2018-09-19T14:34:03.185Z,4.67
2018-09-19T14:36:31.598Z,3.20
2018-09-19T14:38:59.916Z,3.83
2018-09-19T14:41:28.266Z,3.90
2018-09-19T14:43:56.586Z,3.40
2018-09-19T14:46:24.883Z,3.30
2018-09-19T14:48:53.356Z,5.30
2018-09-19T14:51:21.631Z,7.43
2018-09-19T14:53:49.930Z,7.33
2018-09-19T14:56:18.259Z,3.60
2018-09-19T14:58:46.747Z,4.47
2018-09-19T15:01:15.056Z,3.00
2018-09-19T15:03:43.398Z,3.70
2018-09-19T15:06:11.691Z,4.23
2018-09-19T15:08:40.100Z,3.80
2018-09-19T15:11:08.581Z,3.20
2018-09-19T15:13:37.032Z,3.20
2018-09-19T15:16:05.280Z,3.07
2018-09-19T15:18:33.795Z,3.43
2018-09-19T15:21:02.060Z,3.40
2018-09-19T15:23:30.353Z,3.50
2018-09-19T15:25:58.811Z,3.80
2018-09-19T15:28:27.113Z,4.13
2018-09-19T15:30:55.331Z,4.30
2018-09-19T15:33:23.570Z,4.53
2018-09-19T15:35:52.043Z,5.27
2018-09-19T15:38:20.503Z,4.40
2018-09-19T15:40:48.760Z,9.50
2018-09-19T15:43:17.020Z,3.93
2018-09-19T15:45:45.610Z,4.43
2018-09-19T15:48:14.886Z,5.93
2018-09-19T15:50:43.227Z,4.60
2018-09-19T15:53:11.600Z,4.47
2018-09-19T15:55:39.974Z,5.73
2018-09-19T15:58:08.218Z,4.70
2018-09-19T16:00:36.569Z,6.23
2018-09-19T16:03:04.910Z,4.33
2018-09-19T16:05:33.381Z,3.70
2018-09-19T16:08:01.661Z,3.80
2018-09-19T16:10:30.033Z,4.17
2018-09-19T16:12:58.369Z,4.00
2018-09-19T16:15:26.710Z,4.33
2018-09-19T16:17:55.051Z,4.70
2018-09-19T16:20:23.366Z,5.00
2018-09-19T16:22:51.707Z,4.50
2018-09-19T16:25:20.116Z,4.03
2018-09-19T16:27:48.428Z,5.47
2018-09-19T16:30:16.835Z,5.13
2018-09-19T16:32:45.157Z,8.60
2018-09-19T16:35:13.636Z,5.87
2018-09-19T16:37:41.881Z,6.07
2018-09-19T16:40:10.145Z,5.10
2018-09-19T16:42:38.484Z,4.97
2018-09-19T16:45:06.908Z,6.13
2018-09-19T16:47:35.379Z,8.50
2018-09-19T16:50:03.732Z,10.23
2018-09-19T16:52:32.228Z,18.00
2018-09-19T16:55:00.604Z,13.23
2018-09-19T16:57:29.970Z,11.13
2018-09-19T16:59:58.570Z,22.70
2018-09-19T17:02:26.903Z,15.03
2018-09-19T17:04:55.198Z,7.73
2018-09-19T17:07:23.572Z,13.57
2018-09-19T17:09:52.570Z,7.50
2018-09-19T17:12:21.083Z,6.57
2018-09-19T17:14:49.400Z,5.70
2018-09-19T17:17:17.847Z,7.40
2018-09-19T17:19:46.430Z,5.70
2018-09-19T17:22:14.751Z,8.93
2018-09-19T17:24:43.012Z,13.37
2018-09-19T17:27:11.726Z,14.50
2018-09-19T17:29:40.050Z,7.53
2018-09-19T17:32:08.679Z,9.17
2018-09-19T17:34:37.216Z,18.13
2018-09-19T17:37:06.591Z,15.47
2018-09-19T17:39:34.910Z,19.63
2018-09-19T17:42:03.264Z,6.70
2018-09-19T17:44:31.625Z,15.00
2018-09-19T17:46:59.945Z,9.13
2018-09-19T17:49:28.266Z,16.80
2018-09-19T17:51:56.751Z,12.03
2018-09-19T17:54:25.233Z,12.77
2018-09-19T17:56:53.531Z,8.50
2018-09-19T17:59:21.921Z,7.80
2018-09-19T18:01:51.364Z,9.00
2018-09-19T18:04:19.891Z,12.63
2018-09-19T18:06:48.376Z,9.93
2018-09-19T18:09:16.915Z,8.37
2018-09-19T18:11:45.217Z,13.03
2018-09-19T18:14:13.632Z,9.43
2018-09-19T18:16:41.965Z,20.03
2018-09-19T18:19:10.256Z,12.10
2018-09-19T18:21:38.623Z,7.47
2018-09-19T18:24:06.927Z,12.40
2018-09-19T18:26:36.204Z,10.27
2018-09-19T18:29:04.636Z,15.83
2018-09-19T18:31:33.028Z,17.03
2018-09-19T18:34:01.409Z,10.23
2018-09-19T18:36:29.844Z,9.60
2018-09-19T18:38:58.223Z,8.47
2018-09-19T18:41:26.577Z,12.63
2018-09-19T18:43:54.805Z,22.63
2018-09-19T18:46:23.100Z,18.63
2018-09-19T18:48:51.568Z,18.57
2018-09-19T18:51:19.860Z,9.93
2018-09-19T18:53:48.212Z,12.60
2018-09-19T18:56:16.536Z,10.10
2018-09-19T18:58:44.912Z,15.03
2018-09-19T19:01:13.311Z,17.23
2018-09-19T19:03:41.598Z,16.33
2018-09-19T19:06:10.081Z,13.27
2018-09-19T19:08:38.399Z,21.10
2018-09-19T19:11:07.033Z,10.27
2018-09-19T19:13:35.489Z,20.10
2018-09-19T19:16:03.743Z,19.30
2018-09-19T19:18:32.089Z,18.37
2018-09-19T19:21:00.478Z,9.63
2018-09-19T19:23:28.929Z,16.63
2018-09-19T19:25:57.746Z,10.43
2018-09-19T19:28:27.046Z,11.53
2018-09-19T19:30:55.733Z,11.47
2018-09-19T19:33:24.159Z,13.40
2018-09-19T19:35:52.586Z,27.53
2018-09-19T19:38:21.036Z,11.40
2018-09-19T19:40:49.887Z,17.93
2018-09-19T19:43:18.953Z,13.93
2018-09-19T19:45:48.092Z,30.97
2018-09-19T19:48:16.531Z,10.40
2018-09-19T19:50:44.959Z,16.83
2018-09-19T19:53:13.542Z,12.63
2018-09-19T19:55:41.919Z,11.80
2018-09-19T19:58:10.522Z,9.60
2018-09-19T20:00:38.910Z,11.80
2018-09-19T20:03:07.237Z,14.97
2018-09-19T20:05:36.127Z,11.03
2018-09-19T20:08:04.468Z,12.13
2018-09-19T20:10:32.962Z,18.83
2018-09-19T20:13:01.358Z,12.33
2018-09-19T20:15:29.665Z,10.43
2018-09-19T20:17:58.085Z,11.93
2018-09-19T20:20:26.578Z,13.90
2018-09-19T20:22:54.969Z,13.40
2018-09-19T20:25:23.300Z,29.10
2018-09-19T20:27:51.715Z,18.63
2018-09-19T20:30:20.130Z,17.57
2018-09-19T20:32:48.527Z,12.53
2018-09-19T20:35:16.830Z,15.57
2018-09-19T20:37:45.118Z,18.40
2018-09-19T20:40:13.495Z,18.73
2018-09-19T20:42:41.899Z,13.30
2018-09-19T20:45:10.140Z,15.27
2018-09-19T20:47:38.577Z,15.37
2018-09-19T20:50:07.204Z,11.60
2018-09-19T20:52:35.609Z,16.33
2018-09-19T20:55:03.900Z,13.20
2018-09-19T20:57:32.221Z,18.67
2018-09-19T21:00:00.645Z,19.80
2018-09-19T21:02:29.153Z,11.37
2018-09-19T21:04:57.544Z,12.60
2018-09-19T21:07:27.025Z,16.50
2018-09-19T21:09:55.364Z,15.83
2018-09-19T21:12:23.956Z,17.90
2018-09-19T21:14:52.267Z,10.33
2018-09-19T21:17:20.548Z,11.80
2018-09-19T21:19:48.820Z,11.77
2018-09-19T21:22:17.378Z,19.10
2018-09-19T21:24:45.607Z,13.40
2018-09-19T21:27:14.038Z,13.70
2018-09-19T21:29:42.299Z,16.80
2018-09-19T21:32:11.136Z,18.43
2018-09-19T21:34:39.466Z,16.73
2018-09-19T21:37:08.263Z,14.17
2018-09-19T21:39:36.750Z,14.50
2018-09-19T21:42:05.295Z,14.20
2018-09-19T21:44:33.787Z,17.60
2018-09-19T21:47:02.157Z,18.63
2018-09-19T21:49:30.553Z,12.43
2018-09-19T21:51:58.865Z,13.00
2018-09-19T21:54:27.336Z,18.17
2018-09-19T21:56:55.721Z,14.60
2018-09-19T21:59:23.955Z,18.97
2018-09-19T22:01:59.478Z,15.57
2018-09-19T22:04:27.934Z,12.53
2018-09-19T22:06:56.233Z,15.90
2018-09-19T22:09:24.492Z,13.03
2018-09-19T22:11:53.010Z,13.63
2018-09-19T22:14:21.778Z,15.50
2018-09-19T22:16:51.208Z,15.50
2018-09-19T22:19:19.746Z,14.00
2018-09-19T22:21:48.902Z,11.70
2018-09-19T22:24:17.178Z,13.83
2018-09-19T22:26:45.414Z,13.43
2018-09-19T22:29:13.764Z,11.80
2018-09-19T22:31:42.065Z,15.13
2018-09-19T22:34:10.633Z,13.57
2018-09-19T22:36:45.837Z,12.70
2018-09-19T22:39:16.547Z,17.93
2018-09-19T22:41:45.305Z,18.70
2018-09-19T22:44:13.892Z,12.80
2018-09-19T22:46:42.204Z,17.20
2018-09-19T22:49:10.492Z,13.50
2018-09-19T22:51:38.805Z,15.23
2018-09-19T22:54:07.192Z,11.83
2018-09-19T22:56:35.480Z,13.47
2018-09-19T22:59:03.827Z,14.00
2018-09-19T23:01:32.250Z,14.83
2018-09-19T23:04:00.566Z,12.03
2018-09-19T23:06:28.916Z,12.07
2018-09-19T23:08:57.259Z,11.40
2018-09-19T23:11:26.559Z,17.47
2018-09-19T23:13:54.867Z,13.50
2018-09-19T23:16:23.123Z,21.17
2018-09-19T23:18:51.433Z,14.13
2018-09-19T23:21:19.903Z,14.93
2018-09-19T23:23:48.178Z,14.00
2018-09-19T23:26:16.467Z,14.23
2018-09-19T23:28:44.804Z,15.23
2018-09-19T23:31:13.139Z,15.20
2018-09-19T23:33:41.471Z,14.73
2018-09-19T23:36:09.751Z,17.80
2018-09-19T23:38:38.141Z,19.33
2018-09-19T23:41:06.583Z,15.03
2018-09-19T23:43:35.016Z,15.63
2018-09-19T23:46:03.297Z,16.73
2018-09-19T23:48:31.789Z,18.20
2018-09-19T23:51:00.193Z,15.00
2018-09-19T23:53:28.620Z,15.03
2018-09-19T23:55:57.039Z,16.70
2018-09-19T23:58:25.542Z,16.20
